<?xml version="1.0" encoding="UTF-8" standalone="no" ?>
<gpx xmlns="http://www.topografix.com/GPX/1/1" xmlns:xsi="http://www.w3.org/2001/XMLSchema-instance" xsi:schemaLocation="http://www.topografix.com/GPX/1/1 http://www.topografix.com/GPX/1/1/gpx.xsd" version="1.1" creator="VisuGPX - https://www.visugpx.com">
  <metadata>
    <name>12404746-TERNAND</name>
  </metadata>
  <trk>
    <name><![CDATA[12404746-TERNAND]]></name>
    <trkseg>
      <trkpt lat="45.91879" lon="4.52829">
        <ele>390</ele>
        <time>2021-01-04T18:05:27Z</time>
      </trkpt>
      <trkpt lat="45.91869" lon="4.52842">
        <ele>390</ele>
        <time>2021-01-04T18:05:45Z</time>
      </trkpt>
      <trkpt lat="45.91852" lon="4.52812">
        <ele>390</ele>
        <time>2021-01-04T18:06:21Z</time>
      </trkpt>
      <trkpt lat="45.9184" lon="4.52803">
        <ele>390</ele>
        <time>2021-01-04T18:06:39Z</time>
      </trkpt>
      <trkpt lat="45.91721" lon="4.52765">
        <ele>374</ele>
        <time>2021-01-04T18:09:22Z</time>
      </trkpt>
      <trkpt lat="45.91673" lon="4.53037">
        <ele>374</ele>
        <time>2021-01-04T18:13:42Z</time>
      </trkpt>
      <trkpt lat="45.9167" lon="4.53073">
        <ele>376</ele>
        <time>2021-01-04T18:14:16Z</time>
      </trkpt>
      <trkpt lat="45.9167" lon="4.53094">
        <ele>376</ele>
        <time>2021-01-04T18:14:35Z</time>
      </trkpt>
      <trkpt lat="45.91673" lon="4.53109">
        <ele>377</ele>
        <time>2021-01-04T18:14:50Z</time>
      </trkpt>
      <trkpt lat="45.91691" lon="4.53174">
        <ele>378</ele>
        <time>2021-01-04T18:15:55Z</time>
      </trkpt>
      <trkpt lat="45.91648" lon="4.53263">
        <ele>371</ele>
        <time>2021-01-04T18:17:35Z</time>
      </trkpt>
      <trkpt lat="45.91628" lon="4.533">
        <ele>367</ele>
        <time>2021-01-04T18:18:19Z</time>
      </trkpt>
      <trkpt lat="45.91618" lon="4.53305">
        <ele>367</ele>
        <time>2021-01-04T18:18:33Z</time>
      </trkpt>
      <trkpt lat="45.91602" lon="4.53318">
        <ele>366</ele>
        <time>2021-01-04T18:18:58Z</time>
      </trkpt>
      <trkpt lat="45.91571" lon="4.53358">
        <ele>364</ele>
        <time>2021-01-04T18:19:53Z</time>
      </trkpt>
      <trkpt lat="45.91532" lon="4.53397">
        <ele>362</ele>
        <time>2021-01-04T18:20:57Z</time>
      </trkpt>
      <trkpt lat="45.91489" lon="4.53432">
        <ele>362</ele>
        <time>2021-01-04T18:22:02Z</time>
      </trkpt>
      <trkpt lat="45.91463" lon="4.53462">
        <ele>361</ele>
        <time>2021-01-04T18:22:47Z</time>
      </trkpt>
      <trkpt lat="45.91433" lon="4.53477">
        <ele>360</ele>
        <time>2021-01-04T18:23:29Z</time>
      </trkpt>
      <trkpt lat="45.91415" lon="4.53495">
        <ele>360</ele>
        <time>2021-01-04T18:23:59Z</time>
      </trkpt>
      <trkpt lat="45.91398" lon="4.5352">
        <ele>358</ele>
        <time>2021-01-04T18:24:31Z</time>
      </trkpt>
      <trkpt lat="45.9138" lon="4.53537">
        <ele>357</ele>
        <time>2021-01-04T18:25:00Z</time>
      </trkpt>
      <trkpt lat="45.91355" lon="4.53554">
        <ele>355</ele>
        <time>2021-01-04T18:25:37Z</time>
      </trkpt>
      <trkpt lat="45.91322" lon="4.53588">
        <ele>353</ele>
        <time>2021-01-04T18:26:31Z</time>
      </trkpt>
      <trkpt lat="45.91285" lon="4.5364">
        <ele>348</ele>
        <time>2021-01-04T18:27:40Z</time>
      </trkpt>
      <trkpt lat="45.91285" lon="4.53652">
        <ele>348</ele>
        <time>2021-01-04T18:27:51Z</time>
      </trkpt>
      <trkpt lat="45.91285" lon="4.5364">
        <ele>348</ele>
        <time>2021-01-04T18:28:02Z</time>
      </trkpt>
      <trkpt lat="45.91267" lon="4.53626">
        <ele>347</ele>
        <time>2021-01-04T18:28:30Z</time>
      </trkpt>
      <trkpt lat="45.91244" lon="4.53576">
        <ele>344</ele>
        <time>2021-01-04T18:29:25Z</time>
      </trkpt>
      <trkpt lat="45.91233" lon="4.53533">
        <ele>343</ele>
        <time>2021-01-04T18:30:08Z</time>
      </trkpt>
      <trkpt lat="45.91193" lon="4.5343">
        <ele>337</ele>
        <time>2021-01-04T18:31:57Z</time>
      </trkpt>
      <trkpt lat="45.91177" lon="4.53369">
        <ele>330</ele>
        <time>2021-01-04T18:32:58Z</time>
      </trkpt>
      <trkpt lat="45.91164" lon="4.53281">
        <ele>322</ele>
        <time>2021-01-04T18:34:21Z</time>
      </trkpt>
      <trkpt lat="45.91146" lon="4.53274">
        <ele>322</ele>
        <time>2021-01-04T18:34:46Z</time>
      </trkpt>
      <trkpt lat="45.91128" lon="4.53244">
        <ele>322</ele>
        <time>2021-01-04T18:35:23Z</time>
      </trkpt>
      <trkpt lat="45.91121" lon="4.53237">
        <ele>322</ele>
        <time>2021-01-04T18:35:34Z</time>
      </trkpt>
      <trkpt lat="45.91109" lon="4.53245">
        <ele>322</ele>
        <time>2021-01-04T18:35:52Z</time>
      </trkpt>
      <trkpt lat="45.91087" lon="4.53272">
        <ele>320</ele>
        <time>2021-01-04T18:36:31Z</time>
      </trkpt>
      <trkpt lat="45.91067" lon="4.53294">
        <ele>320</ele>
        <time>2021-01-04T18:37:04Z</time>
      </trkpt>
      <trkpt lat="45.91042" lon="4.53303">
        <ele>322</ele>
        <time>2021-01-04T18:37:39Z</time>
      </trkpt>
      <trkpt lat="45.91021" lon="4.53295">
        <ele>324</ele>
        <time>2021-01-04T18:38:08Z</time>
      </trkpt>
      <trkpt lat="45.90975" lon="4.53248">
        <ele>330</ele>
        <time>2021-01-04T18:39:23Z</time>
      </trkpt>
      <trkpt lat="45.90987" lon="4.53235">
        <ele>330</ele>
        <time>2021-01-04T18:39:43Z</time>
      </trkpt>
      <trkpt lat="45.91146" lon="4.5301">
        <ele>333</ele>
        <time>2021-01-04T18:44:41Z</time>
      </trkpt>
      <trkpt lat="45.91163" lon="4.52993">
        <ele>333</ele>
        <time>2021-01-04T18:45:08Z</time>
      </trkpt>
      <trkpt lat="45.91228" lon="4.52952">
        <ele>331</ele>
        <time>2021-01-04T18:46:43Z</time>
      </trkpt>
      <trkpt lat="45.91257" lon="4.52931">
        <ele>331</ele>
        <time>2021-01-04T18:47:26Z</time>
      </trkpt>
      <trkpt lat="45.91292" lon="4.52895">
        <ele>331</ele>
        <time>2021-01-04T18:48:24Z</time>
      </trkpt>
      <trkpt lat="45.91341" lon="4.52824">
        <ele>333</ele>
        <time>2021-01-04T18:49:57Z</time>
      </trkpt>
      <trkpt lat="45.91345" lon="4.52815">
        <ele>334</ele>
        <time>2021-01-04T18:50:07Z</time>
      </trkpt>
      <trkpt lat="45.91339" lon="4.5281">
        <ele>333</ele>
        <time>2021-01-04T18:50:16Z</time>
      </trkpt>
      <trkpt lat="45.91338" lon="4.52804">
        <ele>334</ele>
        <time>2021-01-04T18:50:22Z</time>
      </trkpt>
      <trkpt lat="45.91339" lon="4.52789">
        <ele>335</ele>
        <time>2021-01-04T18:50:36Z</time>
      </trkpt>
      <trkpt lat="45.91367" lon="4.52713">
        <ele>342</ele>
        <time>2021-01-04T18:51:55Z</time>
      </trkpt>
      <trkpt lat="45.91394" lon="4.52598">
        <ele>350</ele>
        <time>2021-01-04T18:53:48Z</time>
      </trkpt>
      <trkpt lat="45.91415" lon="4.52562">
        <ele>354</ele>
        <time>2021-01-04T18:54:32Z</time>
      </trkpt>
      <trkpt lat="45.91425" lon="4.52535">
        <ele>356</ele>
        <time>2021-01-04T18:55:00Z</time>
      </trkpt>
      <trkpt lat="45.91434" lon="4.52494">
        <ele>359</ele>
        <time>2021-01-04T18:55:40Z</time>
      </trkpt>
      <trkpt lat="45.91443" lon="4.52401">
        <ele>367</ele>
        <time>2021-01-04T18:57:07Z</time>
      </trkpt>
      <trkpt lat="45.91454" lon="4.52367">
        <ele>370</ele>
        <time>2021-01-04T18:57:42Z</time>
      </trkpt>
      <trkpt lat="45.91468" lon="4.52345">
        <ele>372</ele>
        <time>2021-01-04T18:58:10Z</time>
      </trkpt>
      <trkpt lat="45.91474" lon="4.52354">
        <ele>372</ele>
        <time>2021-01-04T18:58:21Z</time>
      </trkpt>
      <trkpt lat="45.91495" lon="4.5233">
        <ele>375</ele>
        <time>2021-01-04T18:58:57Z</time>
      </trkpt>
      <trkpt lat="45.91498" lon="4.52322">
        <ele>376</ele>
        <time>2021-01-04T18:59:06Z</time>
      </trkpt>
      <trkpt lat="45.91499" lon="4.52304">
        <ele>377</ele>
        <time>2021-01-04T18:59:22Z</time>
      </trkpt>
      <trkpt lat="45.91521" lon="4.52292">
        <ele>378</ele>
        <time>2021-01-04T18:59:54Z</time>
      </trkpt>
      <trkpt lat="45.91539" lon="4.52285">
        <ele>378</ele>
        <time>2021-01-04T19:00:19Z</time>
      </trkpt>
      <trkpt lat="45.9155" lon="4.52277">
        <ele>379</ele>
        <time>2021-01-04T19:00:35Z</time>
      </trkpt>
      <trkpt lat="45.91561" lon="4.52265">
        <ele>381</ele>
        <time>2021-01-04T19:00:53Z</time>
      </trkpt>
      <trkpt lat="45.91573" lon="4.52275">
        <ele>380</ele>
        <time>2021-01-04T19:01:12Z</time>
      </trkpt>
      <trkpt lat="45.91561" lon="4.52265">
        <ele>381</ele>
        <time>2021-01-04T19:01:30Z</time>
      </trkpt>
      <trkpt lat="45.91526" lon="4.52241">
        <ele>382</ele>
        <time>2021-01-04T19:02:22Z</time>
      </trkpt>
      <trkpt lat="45.91476" lon="4.52214">
        <ele>380</ele>
        <time>2021-01-04T19:03:34Z</time>
      </trkpt>
      <trkpt lat="45.91506" lon="4.52146">
        <ele>385</ele>
        <time>2021-01-04T19:04:48Z</time>
      </trkpt>
      <trkpt lat="45.9153" lon="4.521">
        <ele>389</ele>
        <time>2021-01-04T19:05:42Z</time>
      </trkpt>
      <trkpt lat="45.91571" lon="4.52009">
        <ele>400</ele>
        <time>2021-01-04T19:07:22Z</time>
      </trkpt>
      <trkpt lat="45.91576" lon="4.51992">
        <ele>402</ele>
        <time>2021-01-04T19:07:39Z</time>
      </trkpt>
      <trkpt lat="45.9158" lon="4.51957">
        <ele>406</ele>
        <time>2021-01-04T19:08:12Z</time>
      </trkpt>
      <trkpt lat="45.91577" lon="4.51931">
        <ele>407</ele>
        <time>2021-01-04T19:08:37Z</time>
      </trkpt>
      <trkpt lat="45.91578" lon="4.51909">
        <ele>409</ele>
        <time>2021-01-04T19:08:57Z</time>
      </trkpt>
      <trkpt lat="45.91585" lon="4.51858">
        <ele>411</ele>
        <time>2021-01-04T19:09:46Z</time>
      </trkpt>
      <trkpt lat="45.91593" lon="4.51835">
        <ele>412</ele>
        <time>2021-01-04T19:10:09Z</time>
      </trkpt>
      <trkpt lat="45.9161" lon="4.51795">
        <ele>414</ele>
        <time>2021-01-04T19:10:53Z</time>
      </trkpt>
      <trkpt lat="45.9163" lon="4.51765">
        <ele>418</ele>
        <time>2021-01-04T19:11:32Z</time>
      </trkpt>
      <trkpt lat="45.91675" lon="4.51738">
        <ele>425</ele>
        <time>2021-01-04T19:12:37Z</time>
      </trkpt>
      <trkpt lat="45.91686" lon="4.51714">
        <ele>426</ele>
        <time>2021-01-04T19:13:03Z</time>
      </trkpt>
      <trkpt lat="45.91694" lon="4.51712">
        <ele>426</ele>
        <time>2021-01-04T19:13:14Z</time>
      </trkpt>
      <trkpt lat="45.91702" lon="4.51695">
        <ele>426</ele>
        <time>2021-01-04T19:13:33Z</time>
      </trkpt>
      <trkpt lat="45.91718" lon="4.51657">
        <ele>428</ele>
        <time>2021-01-04T19:14:14Z</time>
      </trkpt>
      <trkpt lat="45.91743" lon="4.51577">
        <ele>431</ele>
        <time>2021-01-04T19:15:36Z</time>
      </trkpt>
      <trkpt lat="45.91747" lon="4.51514">
        <ele>434</ele>
        <time>2021-01-04T19:16:35Z</time>
      </trkpt>
      <trkpt lat="45.91752" lon="4.51479">
        <ele>435</ele>
        <time>2021-01-04T19:17:08Z</time>
      </trkpt>
      <trkpt lat="45.91764" lon="4.51461">
        <ele>434</ele>
        <time>2021-01-04T19:17:31Z</time>
      </trkpt>
      <trkpt lat="45.9184" lon="4.51412">
        <ele>436</ele>
        <time>2021-01-04T19:19:22Z</time>
      </trkpt>
      <trkpt lat="45.91866" lon="4.51374">
        <ele>435</ele>
        <time>2021-01-04T19:20:12Z</time>
      </trkpt>
      <trkpt lat="45.91894" lon="4.513">
        <ele>434</ele>
        <time>2021-01-04T19:21:30Z</time>
      </trkpt>
      <trkpt lat="45.9196" lon="4.5114">
        <ele>434</ele>
        <time>2021-01-04T19:24:22Z</time>
      </trkpt>
      <trkpt lat="45.92065" lon="4.50862">
        <ele>432</ele>
        <time>2021-01-04T19:29:16Z</time>
      </trkpt>
      <trkpt lat="45.9207" lon="4.50858">
        <ele>432</ele>
        <time>2021-01-04T19:29:24Z</time>
      </trkpt>
      <trkpt lat="45.92074" lon="4.50854">
        <ele>432</ele>
        <time>2021-01-04T19:29:30Z</time>
      </trkpt>
      <trkpt lat="45.9208" lon="4.50716">
        <ele>420</ele>
        <time>2021-01-04T19:31:39Z</time>
      </trkpt>
      <trkpt lat="45.92089" lon="4.5065">
        <ele>415</ele>
        <time>2021-01-04T19:32:41Z</time>
      </trkpt>
      <trkpt lat="45.92088" lon="4.5064">
        <ele>414</ele>
        <time>2021-01-04T19:32:50Z</time>
      </trkpt>
      <trkpt lat="45.92091" lon="4.50622">
        <ele>413</ele>
        <time>2021-01-04T19:33:08Z</time>
      </trkpt>
      <trkpt lat="45.92091" lon="4.50597">
        <ele>412</ele>
        <time>2021-01-04T19:33:31Z</time>
      </trkpt>
      <trkpt lat="45.92085" lon="4.50537">
        <ele>406</ele>
        <time>2021-01-04T19:34:27Z</time>
      </trkpt>
      <trkpt lat="45.92088" lon="4.50507">
        <ele>403</ele>
        <time>2021-01-04T19:34:55Z</time>
      </trkpt>
      <trkpt lat="45.92086" lon="4.50479">
        <ele>402</ele>
        <time>2021-01-04T19:35:21Z</time>
      </trkpt>
      <trkpt lat="45.92078" lon="4.50453">
        <ele>401</ele>
        <time>2021-01-04T19:35:48Z</time>
      </trkpt>
      <trkpt lat="45.92058" lon="4.50413">
        <ele>400</ele>
        <time>2021-01-04T19:36:33Z</time>
      </trkpt>
      <trkpt lat="45.9204" lon="4.50385">
        <ele>401</ele>
        <time>2021-01-04T19:37:09Z</time>
      </trkpt>
      <trkpt lat="45.92022" lon="4.50362">
        <ele>403</ele>
        <time>2021-01-04T19:37:41Z</time>
      </trkpt>
      <trkpt lat="45.91963" lon="4.503">
        <ele>405</ele>
        <time>2021-01-04T19:39:18Z</time>
      </trkpt>
      <trkpt lat="45.91949" lon="4.50278">
        <ele>406</ele>
        <time>2021-01-04T19:39:46Z</time>
      </trkpt>
      <trkpt lat="45.91885" lon="4.5015">
        <ele>413</ele>
        <time>2021-01-04T19:42:13Z</time>
      </trkpt>
      <trkpt lat="45.9187" lon="4.50125">
        <ele>414</ele>
        <time>2021-01-04T19:42:43Z</time>
      </trkpt>
      <trkpt lat="45.91868" lon="4.50115">
        <ele>414</ele>
        <time>2021-01-04T19:42:53Z</time>
      </trkpt>
      <trkpt lat="45.91863" lon="4.50104">
        <ele>415</ele>
        <time>2021-01-04T19:43:05Z</time>
      </trkpt>
      <trkpt lat="45.91858" lon="4.50089">
        <ele>415</ele>
        <time>2021-01-04T19:43:20Z</time>
      </trkpt>
      <trkpt lat="45.91852" lon="4.50072">
        <ele>416</ele>
        <time>2021-01-04T19:43:38Z</time>
      </trkpt>
      <trkpt lat="45.91851" lon="4.50068">
        <ele>416</ele>
        <time>2021-01-04T19:43:42Z</time>
      </trkpt>
      <trkpt lat="45.91844" lon="4.5001">
        <ele>417</ele>
        <time>2021-01-04T19:44:37Z</time>
      </trkpt>
      <trkpt lat="45.91847" lon="4.49992">
        <ele>417</ele>
        <time>2021-01-04T19:44:54Z</time>
      </trkpt>
      <trkpt lat="45.91851" lon="4.4997">
        <ele>417</ele>
        <time>2021-01-04T19:45:15Z</time>
      </trkpt>
      <trkpt lat="45.9186" lon="4.49939">
        <ele>416</ele>
        <time>2021-01-04T19:45:46Z</time>
      </trkpt>
      <trkpt lat="45.91933" lon="4.49818">
        <ele>416</ele>
        <time>2021-01-04T19:48:15Z</time>
      </trkpt>
      <trkpt lat="45.9195" lon="4.49782">
        <ele>418</ele>
        <time>2021-01-04T19:48:55Z</time>
      </trkpt>
      <trkpt lat="45.91957" lon="4.49746">
        <ele>418</ele>
        <time>2021-01-04T19:49:30Z</time>
      </trkpt>
      <trkpt lat="45.91959" lon="4.49717">
        <ele>418</ele>
        <time>2021-01-04T19:49:57Z</time>
      </trkpt>
      <trkpt lat="45.91956" lon="4.49684">
        <ele>417</ele>
        <time>2021-01-04T19:50:28Z</time>
      </trkpt>
      <trkpt lat="45.9195" lon="4.49669">
        <ele>417</ele>
        <time>2021-01-04T19:50:44Z</time>
      </trkpt>
      <trkpt lat="45.91939" lon="4.49652">
        <ele>416</ele>
        <time>2021-01-04T19:51:06Z</time>
      </trkpt>
      <trkpt lat="45.91931" lon="4.49637">
        <ele>416</ele>
        <time>2021-01-04T19:51:23Z</time>
      </trkpt>
      <trkpt lat="45.91917" lon="4.49609">
        <ele>416</ele>
        <time>2021-01-04T19:51:55Z</time>
      </trkpt>
      <trkpt lat="45.91909" lon="4.49578">
        <ele>416</ele>
        <time>2021-01-04T19:52:26Z</time>
      </trkpt>
      <trkpt lat="45.91884" lon="4.49438">
        <ele>409</ele>
        <time>2021-01-04T19:54:40Z</time>
      </trkpt>
      <trkpt lat="45.91886" lon="4.49398">
        <ele>404</ele>
        <time>2021-01-04T19:55:17Z</time>
      </trkpt>
      <trkpt lat="45.91898" lon="4.49337">
        <ele>396</ele>
        <time>2021-01-04T19:56:16Z</time>
      </trkpt>
      <trkpt lat="45.91914" lon="4.49298">
        <ele>393</ele>
        <time>2021-01-04T19:56:58Z</time>
      </trkpt>
      <trkpt lat="45.91948" lon="4.49254">
        <ele>388</ele>
        <time>2021-01-04T19:57:59Z</time>
      </trkpt>
      <trkpt lat="45.91972" lon="4.49234">
        <ele>383</ele>
        <time>2021-01-04T19:58:36Z</time>
      </trkpt>
      <trkpt lat="45.91976" lon="4.49229">
        <ele>382</ele>
        <time>2021-01-04T19:58:43Z</time>
      </trkpt>
      <trkpt lat="45.91984" lon="4.49235">
        <ele>383</ele>
        <time>2021-01-04T19:58:55Z</time>
      </trkpt>
      <trkpt lat="45.92015" lon="4.49268">
        <ele>388</ele>
        <time>2021-01-04T19:59:47Z</time>
      </trkpt>
      <trkpt lat="45.92039" lon="4.49301">
        <ele>393</ele>
        <time>2021-01-04T20:00:31Z</time>
      </trkpt>
      <trkpt lat="45.92057" lon="4.49329">
        <ele>396</ele>
        <time>2021-01-04T20:01:06Z</time>
      </trkpt>
      <trkpt lat="45.92073" lon="4.49361">
        <ele>399</ele>
        <time>2021-01-04T20:01:43Z</time>
      </trkpt>
      <trkpt lat="45.92088" lon="4.49417">
        <ele>405</ele>
        <time>2021-01-04T20:02:39Z</time>
      </trkpt>
      <trkpt lat="45.92091" lon="4.49459">
        <ele>410</ele>
        <time>2021-01-04T20:03:18Z</time>
      </trkpt>
      <trkpt lat="45.92101" lon="4.49495">
        <ele>414</ele>
        <time>2021-01-04T20:03:54Z</time>
      </trkpt>
      <trkpt lat="45.92122" lon="4.49519">
        <ele>417</ele>
        <time>2021-01-04T20:04:30Z</time>
      </trkpt>
      <trkpt lat="45.92145" lon="4.49533">
        <ele>418</ele>
        <time>2021-01-04T20:05:03Z</time>
      </trkpt>
      <trkpt lat="45.92162" lon="4.49546">
        <ele>421</ele>
        <time>2021-01-04T20:05:29Z</time>
      </trkpt>
      <trkpt lat="45.92191" lon="4.49625">
        <ele>428</ele>
        <time>2021-01-04T20:06:52Z</time>
      </trkpt>
      <trkpt lat="45.92219" lon="4.49681">
        <ele>434</ele>
        <time>2021-01-04T20:07:56Z</time>
      </trkpt>
      <trkpt lat="45.92241" lon="4.49734">
        <ele>441</ele>
        <time>2021-01-04T20:08:53Z</time>
      </trkpt>
      <trkpt lat="45.92265" lon="4.4977">
        <ele>445</ele>
        <time>2021-01-04T20:09:39Z</time>
      </trkpt>
      <trkpt lat="45.92299" lon="4.49811">
        <ele>451</ele>
        <time>2021-01-04T20:10:39Z</time>
      </trkpt>
      <trkpt lat="45.92328" lon="4.49869">
        <ele>457</ele>
        <time>2021-01-04T20:11:45Z</time>
      </trkpt>
      <trkpt lat="45.92344" lon="4.49898">
        <ele>461</ele>
        <time>2021-01-04T20:12:19Z</time>
      </trkpt>
      <trkpt lat="45.92404" lon="4.49963">
        <ele>468</ele>
        <time>2021-01-04T20:13:59Z</time>
      </trkpt>
      <trkpt lat="45.92424" lon="4.50003">
        <ele>469</ele>
        <time>2021-01-04T20:14:45Z</time>
      </trkpt>
      <trkpt lat="45.92438" lon="4.50043">
        <ele>468</ele>
        <time>2021-01-04T20:15:27Z</time>
      </trkpt>
      <trkpt lat="45.92451" lon="4.50091">
        <ele>466</ele>
        <time>2021-01-04T20:16:15Z</time>
      </trkpt>
      <trkpt lat="45.92487" lon="4.5008">
        <ele>468</ele>
        <time>2021-01-04T20:17:04Z</time>
      </trkpt>
      <trkpt lat="45.92499" lon="4.50074">
        <ele>468</ele>
        <time>2021-01-04T20:17:21Z</time>
      </trkpt>
      <trkpt lat="45.92523" lon="4.50055">
        <ele>470</ele>
        <time>2021-01-04T20:17:57Z</time>
      </trkpt>
      <trkpt lat="45.92542" lon="4.50051">
        <ele>470</ele>
        <time>2021-01-04T20:18:23Z</time>
      </trkpt>
      <trkpt lat="45.92552" lon="4.50054">
        <ele>470</ele>
        <time>2021-01-04T20:18:36Z</time>
      </trkpt>
      <trkpt lat="45.92562" lon="4.5006">
        <ele>471</ele>
        <time>2021-01-04T20:18:51Z</time>
      </trkpt>
      <trkpt lat="45.92624" lon="4.50113">
        <ele>469</ele>
        <time>2021-01-04T20:20:27Z</time>
      </trkpt>
      <trkpt lat="45.92681" lon="4.50226">
        <ele>465</ele>
        <time>2021-01-04T20:22:37Z</time>
      </trkpt>
      <trkpt lat="45.92698" lon="4.50283">
        <ele>462</ele>
        <time>2021-01-04T20:23:34Z</time>
      </trkpt>
      <trkpt lat="45.92696" lon="4.50306">
        <ele>461</ele>
        <time>2021-01-04T20:23:56Z</time>
      </trkpt>
      <trkpt lat="45.92674" lon="4.5035">
        <ele>457</ele>
        <time>2021-01-04T20:24:46Z</time>
      </trkpt>
      <trkpt lat="45.92671" lon="4.50367">
        <ele>457</ele>
        <time>2021-01-04T20:25:02Z</time>
      </trkpt>
      <trkpt lat="45.92673" lon="4.50496">
        <ele>461</ele>
        <time>2021-01-04T20:27:02Z</time>
      </trkpt>
      <trkpt lat="45.92671" lon="4.50517">
        <ele>461</ele>
        <time>2021-01-04T20:27:22Z</time>
      </trkpt>
      <trkpt lat="45.92665" lon="4.50533">
        <ele>460</ele>
        <time>2021-01-04T20:27:39Z</time>
      </trkpt>
      <trkpt lat="45.92671" lon="4.50517">
        <ele>461</ele>
        <time>2021-01-04T20:27:56Z</time>
      </trkpt>
      <trkpt lat="45.92673" lon="4.50496">
        <ele>461</ele>
        <time>2021-01-04T20:28:15Z</time>
      </trkpt>
      <trkpt lat="45.92681" lon="4.5054">
        <ele>462</ele>
        <time>2021-01-04T20:28:57Z</time>
      </trkpt>
      <trkpt lat="45.92704" lon="4.50516">
        <ele>463</ele>
        <time>2021-01-04T20:29:35Z</time>
      </trkpt>
      <trkpt lat="45.92751" lon="4.50446">
        <ele>469</ele>
        <time>2021-01-04T20:31:06Z</time>
      </trkpt>
      <trkpt lat="45.92772" lon="4.50434">
        <ele>471</ele>
        <time>2021-01-04T20:31:36Z</time>
      </trkpt>
      <trkpt lat="45.92797" lon="4.50424">
        <ele>474</ele>
        <time>2021-01-04T20:32:10Z</time>
      </trkpt>
      <trkpt lat="45.92828" lon="4.50415">
        <ele>478</ele>
        <time>2021-01-04T20:32:53Z</time>
      </trkpt>
      <trkpt lat="45.92843" lon="4.50398">
        <ele>481</ele>
        <time>2021-01-04T20:33:18Z</time>
      </trkpt>
      <trkpt lat="45.92854" lon="4.50362">
        <ele>484</ele>
        <time>2021-01-04T20:33:55Z</time>
      </trkpt>
      <trkpt lat="45.92863" lon="4.50309">
        <ele>489</ele>
        <time>2021-01-04T20:34:45Z</time>
      </trkpt>
      <trkpt lat="45.92883" lon="4.50207">
        <ele>495</ele>
        <time>2021-01-04T20:36:24Z</time>
      </trkpt>
      <trkpt lat="45.92883" lon="4.50169">
        <ele>494</ele>
        <time>2021-01-04T20:36:59Z</time>
      </trkpt>
      <trkpt lat="45.92886" lon="4.50114">
        <ele>491</ele>
        <time>2021-01-04T20:37:50Z</time>
      </trkpt>
      <trkpt lat="45.92897" lon="4.50068">
        <ele>488</ele>
        <time>2021-01-04T20:38:35Z</time>
      </trkpt>
      <trkpt lat="45.92919" lon="4.50039">
        <ele>486</ele>
        <time>2021-01-04T20:39:15Z</time>
      </trkpt>
      <trkpt lat="45.92965" lon="4.50086">
        <ele>499</ele>
        <time>2021-01-04T20:40:30Z</time>
      </trkpt>
      <trkpt lat="45.93001" lon="4.5013">
        <ele>510</ele>
        <time>2021-01-04T20:41:34Z</time>
      </trkpt>
      <trkpt lat="45.93021" lon="4.50163">
        <ele>518</ele>
        <time>2021-01-04T20:42:14Z</time>
      </trkpt>
      <trkpt lat="45.93024" lon="4.50218">
        <ele>521</ele>
        <time>2021-01-04T20:43:05Z</time>
      </trkpt>
      <trkpt lat="45.93029" lon="4.50268">
        <ele>522</ele>
        <time>2021-01-04T20:43:52Z</time>
      </trkpt>
      <trkpt lat="45.93042" lon="4.50314">
        <ele>523</ele>
        <time>2021-01-04T20:44:38Z</time>
      </trkpt>
      <trkpt lat="45.93078" lon="4.50296">
        <ele>530</ele>
        <time>2021-01-04T20:45:29Z</time>
      </trkpt>
      <trkpt lat="45.93156" lon="4.50239">
        <ele>546</ele>
        <time>2021-01-04T20:47:26Z</time>
      </trkpt>
      <trkpt lat="45.93183" lon="4.50235">
        <ele>550</ele>
        <time>2021-01-04T20:48:02Z</time>
      </trkpt>
      <trkpt lat="45.93221" lon="4.50206">
        <ele>554</ele>
        <time>2021-01-04T20:49:00Z</time>
      </trkpt>
      <trkpt lat="45.93331" lon="4.50151">
        <ele>569</ele>
        <time>2021-01-04T20:51:35Z</time>
      </trkpt>
      <trkpt lat="45.93388" lon="4.50112">
        <ele>581</ele>
        <time>2021-01-04T20:52:59Z</time>
      </trkpt>
      <trkpt lat="45.93422" lon="4.50114">
        <ele>589</ele>
        <time>2021-01-04T20:53:45Z</time>
      </trkpt>
      <trkpt lat="45.93446" lon="4.50096">
        <ele>594</ele>
        <time>2021-01-04T20:54:21Z</time>
      </trkpt>
      <trkpt lat="45.93468" lon="4.5006">
        <ele>600</ele>
        <time>2021-01-04T20:55:05Z</time>
      </trkpt>
      <trkpt lat="45.93503" lon="4.49975">
        <ele>613</ele>
        <time>2021-01-04T20:56:37Z</time>
      </trkpt>
      <trkpt lat="45.93524" lon="4.49944">
        <ele>614</ele>
        <time>2021-01-04T20:57:17Z</time>
      </trkpt>
      <trkpt lat="45.93552" lon="4.49924">
        <ele>614</ele>
        <time>2021-01-04T20:57:59Z</time>
      </trkpt>
      <trkpt lat="45.93607" lon="4.49844">
        <ele>612</ele>
        <time>2021-01-04T20:59:43Z</time>
      </trkpt>
      <trkpt lat="45.93661" lon="4.49803">
        <ele>605</ele>
        <time>2021-01-04T21:01:05Z</time>
      </trkpt>
      <trkpt lat="45.93713" lon="4.49753">
        <ele>606</ele>
        <time>2021-01-04T21:02:28Z</time>
      </trkpt>
      <trkpt lat="45.93749" lon="4.49712">
        <ele>607</ele>
        <time>2021-01-04T21:03:29Z</time>
      </trkpt>
      <trkpt lat="45.9379" lon="4.49654">
        <ele>608</ele>
        <time>2021-01-04T21:04:46Z</time>
      </trkpt>
      <trkpt lat="45.93796" lon="4.49639">
        <ele>609</ele>
        <time>2021-01-04T21:05:02Z</time>
      </trkpt>
      <trkpt lat="45.93838" lon="4.49569">
        <ele>613</ele>
        <time>2021-01-04T21:06:28Z</time>
      </trkpt>
      <trkpt lat="45.93856" lon="4.49552">
        <ele>614</ele>
        <time>2021-01-04T21:06:57Z</time>
      </trkpt>
      <trkpt lat="45.93898" lon="4.49477">
        <ele>617</ele>
        <time>2021-01-04T21:08:26Z</time>
      </trkpt>
      <trkpt lat="45.94022" lon="4.49291">
        <ele>613</ele>
        <time>2021-01-04T21:12:25Z</time>
      </trkpt>
      <trkpt lat="45.94048" lon="4.49224">
        <ele>609</ele>
        <time>2021-01-04T21:13:36Z</time>
      </trkpt>
      <trkpt lat="45.94147" lon="4.49107">
        <ele>624</ele>
        <time>2021-01-04T21:16:27Z</time>
      </trkpt>
      <trkpt lat="45.94165" lon="4.49083">
        <ele>627</ele>
        <time>2021-01-04T21:17:00Z</time>
      </trkpt>
      <trkpt lat="45.94193" lon="4.49007">
        <ele>637</ele>
        <time>2021-01-04T21:18:20Z</time>
      </trkpt>
      <trkpt lat="45.94209" lon="4.48987">
        <ele>640</ele>
        <time>2021-01-04T21:18:48Z</time>
      </trkpt>
      <trkpt lat="45.94233" lon="4.48966">
        <ele>645</ele>
        <time>2021-01-04T21:19:26Z</time>
      </trkpt>
      <trkpt lat="45.94257" lon="4.4896">
        <ele>648</ele>
        <time>2021-01-04T21:19:58Z</time>
      </trkpt>
      <trkpt lat="45.9429" lon="4.48961">
        <ele>643</ele>
        <time>2021-01-04T21:20:42Z</time>
      </trkpt>
      <trkpt lat="45.94319" lon="4.48984">
        <ele>640</ele>
        <time>2021-01-04T21:21:27Z</time>
      </trkpt>
      <trkpt lat="45.94368" lon="4.49088">
        <ele>647</ele>
        <time>2021-01-04T21:23:23Z</time>
      </trkpt>
      <trkpt lat="45.94398" lon="4.49138">
        <ele>648</ele>
        <time>2021-01-04T21:24:24Z</time>
      </trkpt>
      <trkpt lat="45.94417" lon="4.49148">
        <ele>646</ele>
        <time>2021-01-04T21:24:51Z</time>
      </trkpt>
      <trkpt lat="45.94464" lon="4.49119">
        <ele>644</ele>
        <time>2021-01-04T21:26:00Z</time>
      </trkpt>
      <trkpt lat="45.94535" lon="4.49083">
        <ele>642</ele>
        <time>2021-01-04T21:27:40Z</time>
      </trkpt>
      <trkpt lat="45.94548" lon="4.49082">
        <ele>644</ele>
        <time>2021-01-04T21:27:58Z</time>
      </trkpt>
      <trkpt lat="45.94573" lon="4.49086">
        <ele>649</ele>
        <time>2021-01-04T21:28:31Z</time>
      </trkpt>
      <trkpt lat="45.94595" lon="4.49079">
        <ele>648</ele>
        <time>2021-01-04T21:29:01Z</time>
      </trkpt>
      <trkpt lat="45.9461" lon="4.4908">
        <ele>647</ele>
        <time>2021-01-04T21:29:21Z</time>
      </trkpt>
      <trkpt lat="45.9465" lon="4.49099">
        <ele>648</ele>
        <time>2021-01-04T21:30:17Z</time>
      </trkpt>
      <trkpt lat="45.94697" lon="4.49096">
        <ele>648</ele>
        <time>2021-01-04T21:31:20Z</time>
      </trkpt>
      <trkpt lat="45.94712" lon="4.49084">
        <ele>646</ele>
        <time>2021-01-04T21:31:43Z</time>
      </trkpt>
      <trkpt lat="45.94759" lon="4.49023">
        <ele>635</ele>
        <time>2021-01-04T21:33:08Z</time>
      </trkpt>
      <trkpt lat="45.94778" lon="4.49006">
        <ele>631</ele>
        <time>2021-01-04T21:33:37Z</time>
      </trkpt>
      <trkpt lat="45.94796" lon="4.49004">
        <ele>631</ele>
        <time>2021-01-04T21:34:02Z</time>
      </trkpt>
      <trkpt lat="45.94839" lon="4.49022">
        <ele>632</ele>
        <time>2021-01-04T21:35:01Z</time>
      </trkpt>
      <trkpt lat="45.94857" lon="4.49039">
        <ele>629</ele>
        <time>2021-01-04T21:35:30Z</time>
      </trkpt>
      <trkpt lat="45.9487" lon="4.49068">
        <ele>629</ele>
        <time>2021-01-04T21:36:02Z</time>
      </trkpt>
      <trkpt lat="45.94881" lon="4.49139">
        <ele>624</ele>
        <time>2021-01-04T21:37:10Z</time>
      </trkpt>
      <trkpt lat="45.94877" lon="4.49172">
        <ele>624</ele>
        <time>2021-01-04T21:37:41Z</time>
      </trkpt>
      <trkpt lat="45.94865" lon="4.4922">
        <ele>624</ele>
        <time>2021-01-04T21:38:28Z</time>
      </trkpt>
      <trkpt lat="45.94858" lon="4.4928">
        <ele>623</ele>
        <time>2021-01-04T21:39:24Z</time>
      </trkpt>
      <trkpt lat="45.94863" lon="4.49327">
        <ele>621</ele>
        <time>2021-01-04T21:40:09Z</time>
      </trkpt>
      <trkpt lat="45.94872" lon="4.49345">
        <ele>618</ele>
        <time>2021-01-04T21:40:29Z</time>
      </trkpt>
      <trkpt lat="45.94912" lon="4.49392">
        <ele>611</ele>
        <time>2021-01-04T21:41:38Z</time>
      </trkpt>
      <trkpt lat="45.94923" lon="4.49409">
        <ele>611</ele>
        <time>2021-01-04T21:42:00Z</time>
      </trkpt>
      <trkpt lat="45.94928" lon="4.4941">
        <ele>611</ele>
        <time>2021-01-04T21:42:06Z</time>
      </trkpt>
      <trkpt lat="45.9493" lon="4.49402">
        <ele>611</ele>
        <time>2021-01-04T21:42:14Z</time>
      </trkpt>
      <trkpt lat="45.94928" lon="4.4941">
        <ele>611</ele>
        <time>2021-01-04T21:42:22Z</time>
      </trkpt>
      <trkpt lat="45.94929" lon="4.49413">
        <ele>611</ele>
        <time>2021-01-04T21:42:25Z</time>
      </trkpt>
      <trkpt lat="45.94932" lon="4.49415">
        <ele>611</ele>
        <time>2021-01-04T21:42:30Z</time>
      </trkpt>
      <trkpt lat="45.94929" lon="4.49421">
        <ele>611</ele>
        <time>2021-01-04T21:42:36Z</time>
      </trkpt>
      <trkpt lat="45.94921" lon="4.4947">
        <ele>609</ele>
        <time>2021-01-04T21:43:23Z</time>
      </trkpt>
      <trkpt lat="45.9492" lon="4.495">
        <ele>607</ele>
        <time>2021-01-04T21:43:51Z</time>
      </trkpt>
      <trkpt lat="45.94903" lon="4.49559">
        <ele>603</ele>
        <time>2021-01-04T21:44:50Z</time>
      </trkpt>
      <trkpt lat="45.94867" lon="4.49624">
        <ele>596</ele>
        <time>2021-01-04T21:46:07Z</time>
      </trkpt>
      <trkpt lat="45.9486" lon="4.49633">
        <ele>594</ele>
        <time>2021-01-04T21:46:20Z</time>
      </trkpt>
      <trkpt lat="45.94855" lon="4.49644">
        <ele>593</ele>
        <time>2021-01-04T21:46:32Z</time>
      </trkpt>
      <trkpt lat="45.94854" lon="4.49655">
        <ele>591</ele>
        <time>2021-01-04T21:46:42Z</time>
      </trkpt>
      <trkpt lat="45.94856" lon="4.49685">
        <ele>584</ele>
        <time>2021-01-04T21:47:10Z</time>
      </trkpt>
      <trkpt lat="45.94861" lon="4.49713">
        <ele>576</ele>
        <time>2021-01-04T21:47:37Z</time>
      </trkpt>
      <trkpt lat="45.94867" lon="4.49725">
        <ele>573</ele>
        <time>2021-01-04T21:47:51Z</time>
      </trkpt>
      <trkpt lat="45.9489" lon="4.49736">
        <ele>570</ele>
        <time>2021-01-04T21:48:23Z</time>
      </trkpt>
      <trkpt lat="45.94898" lon="4.49738">
        <ele>570</ele>
        <time>2021-01-04T21:48:34Z</time>
      </trkpt>
      <trkpt lat="45.94909" lon="4.49745">
        <ele>568</ele>
        <time>2021-01-04T21:48:50Z</time>
      </trkpt>
      <trkpt lat="45.94912" lon="4.49752">
        <ele>567</ele>
        <time>2021-01-04T21:48:58Z</time>
      </trkpt>
      <trkpt lat="45.94904" lon="4.49799">
        <ele>556</ele>
        <time>2021-01-04T21:49:43Z</time>
      </trkpt>
      <trkpt lat="45.94905" lon="4.49851">
        <ele>547</ele>
        <time>2021-01-04T21:50:31Z</time>
      </trkpt>
      <trkpt lat="45.94903" lon="4.49901">
        <ele>542</ele>
        <time>2021-01-04T21:51:17Z</time>
      </trkpt>
      <trkpt lat="45.949" lon="4.49922">
        <ele>539</ele>
        <time>2021-01-04T21:51:37Z</time>
      </trkpt>
      <trkpt lat="45.94895" lon="4.49937">
        <ele>536</ele>
        <time>2021-01-04T21:51:53Z</time>
      </trkpt>
      <trkpt lat="45.94881" lon="4.49964">
        <ele>532</ele>
        <time>2021-01-04T21:52:24Z</time>
      </trkpt>
      <trkpt lat="45.9488" lon="4.49977">
        <ele>530</ele>
        <time>2021-01-04T21:52:36Z</time>
      </trkpt>
      <trkpt lat="45.94882" lon="4.50042">
        <ele>524</ele>
        <time>2021-01-04T21:53:36Z</time>
      </trkpt>
      <trkpt lat="45.94879" lon="4.50088">
        <ele>521</ele>
        <time>2021-01-04T21:54:19Z</time>
      </trkpt>
      <trkpt lat="45.94879" lon="4.50114">
        <ele>519</ele>
        <time>2021-01-04T21:54:43Z</time>
      </trkpt>
      <trkpt lat="45.94878" lon="4.50139">
        <ele>516</ele>
        <time>2021-01-04T21:55:07Z</time>
      </trkpt>
      <trkpt lat="45.94865" lon="4.50207">
        <ele>511</ele>
        <time>2021-01-04T21:56:12Z</time>
      </trkpt>
      <trkpt lat="45.94864" lon="4.50254">
        <ele>507</ele>
        <time>2021-01-04T21:56:56Z</time>
      </trkpt>
      <trkpt lat="45.9486" lon="4.50359">
        <ele>494</ele>
        <time>2021-01-04T21:58:33Z</time>
      </trkpt>
      <trkpt lat="45.94861" lon="4.50404">
        <ele>487</ele>
        <time>2021-01-04T21:59:15Z</time>
      </trkpt>
      <trkpt lat="45.94859" lon="4.50419">
        <ele>485</ele>
        <time>2021-01-04T21:59:29Z</time>
      </trkpt>
      <trkpt lat="45.94856" lon="4.50429">
        <ele>484</ele>
        <time>2021-01-04T21:59:39Z</time>
      </trkpt>
      <trkpt lat="45.94855" lon="4.50443">
        <ele>482</ele>
        <time>2021-01-04T21:59:52Z</time>
      </trkpt>
      <trkpt lat="45.94856" lon="4.50454">
        <ele>480</ele>
        <time>2021-01-04T22:00:03Z</time>
      </trkpt>
      <trkpt lat="45.94861" lon="4.50467">
        <ele>478</ele>
        <time>2021-01-04T22:00:16Z</time>
      </trkpt>
      <trkpt lat="45.94869" lon="4.50477">
        <ele>477</ele>
        <time>2021-01-04T22:00:31Z</time>
      </trkpt>
      <trkpt lat="45.94871" lon="4.50485">
        <ele>476</ele>
        <time>2021-01-04T22:00:39Z</time>
      </trkpt>
      <trkpt lat="45.94871" lon="4.50496">
        <ele>474</ele>
        <time>2021-01-04T22:00:49Z</time>
      </trkpt>
      <trkpt lat="45.94863" lon="4.50544">
        <ele>467</ele>
        <time>2021-01-04T22:01:35Z</time>
      </trkpt>
      <trkpt lat="45.94851" lon="4.50573">
        <ele>463</ele>
        <time>2021-01-04T22:02:06Z</time>
      </trkpt>
      <trkpt lat="45.9485" lon="4.50598">
        <ele>459</ele>
        <time>2021-01-04T22:02:29Z</time>
      </trkpt>
      <trkpt lat="45.94879" lon="4.50676">
        <ele>450</ele>
        <time>2021-01-04T22:03:51Z</time>
      </trkpt>
      <trkpt lat="45.94877" lon="4.50695">
        <ele>448</ele>
        <time>2021-01-04T22:04:09Z</time>
      </trkpt>
      <trkpt lat="45.94871" lon="4.50723">
        <ele>445</ele>
        <time>2021-01-04T22:04:36Z</time>
      </trkpt>
      <trkpt lat="45.94864" lon="4.50734">
        <ele>444</ele>
        <time>2021-01-04T22:04:50Z</time>
      </trkpt>
      <trkpt lat="45.94848" lon="4.50763">
        <ele>441</ele>
        <time>2021-01-04T22:05:24Z</time>
      </trkpt>
      <trkpt lat="45.94846" lon="4.50776">
        <ele>440</ele>
        <time>2021-01-04T22:05:37Z</time>
      </trkpt>
      <trkpt lat="45.9483" lon="4.50787">
        <ele>438</ele>
        <time>2021-01-04T22:06:00Z</time>
      </trkpt>
      <trkpt lat="45.94826" lon="4.50795">
        <ele>436</ele>
        <time>2021-01-04T22:06:10Z</time>
      </trkpt>
      <trkpt lat="45.94825" lon="4.50808">
        <ele>434</ele>
        <time>2021-01-04T22:06:22Z</time>
      </trkpt>
      <trkpt lat="45.94834" lon="4.50912">
        <ele>428</ele>
        <time>2021-01-04T22:07:59Z</time>
      </trkpt>
      <trkpt lat="45.94847" lon="4.51027">
        <ele>422</ele>
        <time>2021-01-04T22:09:47Z</time>
      </trkpt>
      <trkpt lat="45.94851" lon="4.51045">
        <ele>421</ele>
        <time>2021-01-04T22:10:05Z</time>
      </trkpt>
      <trkpt lat="45.94856" lon="4.51061">
        <ele>421</ele>
        <time>2021-01-04T22:10:21Z</time>
      </trkpt>
      <trkpt lat="45.9487" lon="4.5108">
        <ele>420</ele>
        <time>2021-01-04T22:10:46Z</time>
      </trkpt>
      <trkpt lat="45.94877" lon="4.51082">
        <ele>419</ele>
        <time>2021-01-04T22:10:56Z</time>
      </trkpt>
      <trkpt lat="45.9487" lon="4.5108">
        <ele>420</ele>
        <time>2021-01-04T22:11:06Z</time>
      </trkpt>
      <trkpt lat="45.94856" lon="4.51061">
        <ele>421</ele>
        <time>2021-01-04T22:11:31Z</time>
      </trkpt>
      <trkpt lat="45.94851" lon="4.51045">
        <ele>421</ele>
        <time>2021-01-04T22:11:48Z</time>
      </trkpt>
      <trkpt lat="45.94847" lon="4.51027">
        <ele>422</ele>
        <time>2021-01-04T22:12:05Z</time>
      </trkpt>
      <trkpt lat="45.94834" lon="4.50912">
        <ele>428</ele>
        <time>2021-01-04T22:13:53Z</time>
      </trkpt>
      <trkpt lat="45.94825" lon="4.50808">
        <ele>434</ele>
        <time>2021-01-04T22:15:30Z</time>
      </trkpt>
      <trkpt lat="45.94826" lon="4.50795">
        <ele>436</ele>
        <time>2021-01-04T22:15:43Z</time>
      </trkpt>
      <trkpt lat="45.94823" lon="4.50786">
        <ele>436</ele>
        <time>2021-01-04T22:15:52Z</time>
      </trkpt>
      <trkpt lat="45.94809" lon="4.50724">
        <ele>439</ele>
        <time>2021-01-04T22:16:52Z</time>
      </trkpt>
      <trkpt lat="45.94803" lon="4.50703">
        <ele>440</ele>
        <time>2021-01-04T22:17:13Z</time>
      </trkpt>
      <trkpt lat="45.94793" lon="4.50676">
        <ele>440</ele>
        <time>2021-01-04T22:17:42Z</time>
      </trkpt>
      <trkpt lat="45.94784" lon="4.50657">
        <ele>440</ele>
        <time>2021-01-04T22:18:03Z</time>
      </trkpt>
      <trkpt lat="45.94747" lon="4.50603">
        <ele>437</ele>
        <time>2021-01-04T22:19:13Z</time>
      </trkpt>
      <trkpt lat="45.9474" lon="4.50597">
        <ele>437</ele>
        <time>2021-01-04T22:19:24Z</time>
      </trkpt>
      <trkpt lat="45.94733" lon="4.50593">
        <ele>436</ele>
        <time>2021-01-04T22:19:34Z</time>
      </trkpt>
      <trkpt lat="45.94719" lon="4.5059">
        <ele>435</ele>
        <time>2021-01-04T22:19:53Z</time>
      </trkpt>
      <trkpt lat="45.94691" lon="4.50576">
        <ele>433</ele>
        <time>2021-01-04T22:20:33Z</time>
      </trkpt>
      <trkpt lat="45.94685" lon="4.50575">
        <ele>433</ele>
        <time>2021-01-04T22:20:41Z</time>
      </trkpt>
      <trkpt lat="45.94681" lon="4.50576">
        <ele>432</ele>
        <time>2021-01-04T22:20:46Z</time>
      </trkpt>
      <trkpt lat="45.94679" lon="4.5058">
        <ele>432</ele>
        <time>2021-01-04T22:20:51Z</time>
      </trkpt>
      <trkpt lat="45.94682" lon="4.50614">
        <ele>430</ele>
        <time>2021-01-04T22:21:23Z</time>
      </trkpt>
      <trkpt lat="45.94681" lon="4.50651">
        <ele>428</ele>
        <time>2021-01-04T22:21:57Z</time>
      </trkpt>
      <trkpt lat="45.94676" lon="4.50674">
        <ele>427</ele>
        <time>2021-01-04T22:22:19Z</time>
      </trkpt>
      <trkpt lat="45.94655" lon="4.50766">
        <ele>422</ele>
        <time>2021-01-04T22:23:49Z</time>
      </trkpt>
      <trkpt lat="45.94683" lon="4.50925">
        <ele>410</ele>
        <time>2021-01-04T22:26:21Z</time>
      </trkpt>
      <trkpt lat="45.94682" lon="4.5093">
        <ele>410</ele>
        <time>2021-01-04T22:26:26Z</time>
      </trkpt>
      <trkpt lat="45.94678" lon="4.50936">
        <ele>409</ele>
        <time>2021-01-04T22:26:34Z</time>
      </trkpt>
      <trkpt lat="45.94671" lon="4.50941">
        <ele>409</ele>
        <time>2021-01-04T22:26:44Z</time>
      </trkpt>
      <trkpt lat="45.94635" lon="4.50942">
        <ele>412</ele>
        <time>2021-01-04T22:27:32Z</time>
      </trkpt>
      <trkpt lat="45.94619" lon="4.50948">
        <ele>413</ele>
        <time>2021-01-04T22:27:54Z</time>
      </trkpt>
      <trkpt lat="45.94593" lon="4.50971">
        <ele>414</ele>
        <time>2021-01-04T22:28:35Z</time>
      </trkpt>
      <trkpt lat="45.94583" lon="4.51004">
        <ele>413</ele>
        <time>2021-01-04T22:29:09Z</time>
      </trkpt>
      <trkpt lat="45.9456" lon="4.51041">
        <ele>416</ele>
        <time>2021-01-04T22:29:55Z</time>
      </trkpt>
      <trkpt lat="45.94543" lon="4.5106">
        <ele>418</ele>
        <time>2021-01-04T22:30:23Z</time>
      </trkpt>
      <trkpt lat="45.94508" lon="4.51087">
        <ele>424</ele>
        <time>2021-01-04T22:31:16Z</time>
      </trkpt>
      <trkpt lat="45.94477" lon="4.51115">
        <ele>428</ele>
        <time>2021-01-04T22:32:05Z</time>
      </trkpt>
      <trkpt lat="45.9446" lon="4.51135">
        <ele>430</ele>
        <time>2021-01-04T22:32:35Z</time>
      </trkpt>
      <trkpt lat="45.94437" lon="4.51171">
        <ele>430</ele>
        <time>2021-01-04T22:33:20Z</time>
      </trkpt>
      <trkpt lat="45.94406" lon="4.51209">
        <ele>431</ele>
        <time>2021-01-04T22:34:14Z</time>
      </trkpt>
      <trkpt lat="45.9438" lon="4.51234">
        <ele>430</ele>
        <time>2021-01-04T22:34:56Z</time>
      </trkpt>
      <trkpt lat="45.94354" lon="4.51233">
        <ele>432</ele>
        <time>2021-01-04T22:35:31Z</time>
      </trkpt>
      <trkpt lat="45.94335" lon="4.51227">
        <ele>434</ele>
        <time>2021-01-04T22:35:57Z</time>
      </trkpt>
      <trkpt lat="45.94319" lon="4.51218">
        <ele>435</ele>
        <time>2021-01-04T22:36:20Z</time>
      </trkpt>
      <trkpt lat="45.94307" lon="4.512">
        <ele>437</ele>
        <time>2021-01-04T22:36:43Z</time>
      </trkpt>
      <trkpt lat="45.9429" lon="4.51168">
        <ele>441</ele>
        <time>2021-01-04T22:37:20Z</time>
      </trkpt>
      <trkpt lat="45.94257" lon="4.51128">
        <ele>448</ele>
        <time>2021-01-04T22:38:18Z</time>
      </trkpt>
      <trkpt lat="45.94248" lon="4.51123">
        <ele>449</ele>
        <time>2021-01-04T22:38:31Z</time>
      </trkpt>
      <trkpt lat="45.94236" lon="4.51126">
        <ele>452</ele>
        <time>2021-01-04T22:38:47Z</time>
      </trkpt>
      <trkpt lat="45.94226" lon="4.51137">
        <ele>452</ele>
        <time>2021-01-04T22:39:04Z</time>
      </trkpt>
      <trkpt lat="45.94191" lon="4.51195">
        <ele>450</ele>
        <time>2021-01-04T22:40:15Z</time>
      </trkpt>
      <trkpt lat="45.94155" lon="4.51239">
        <ele>453</ele>
        <time>2021-01-04T22:41:18Z</time>
      </trkpt>
      <trkpt lat="45.94141" lon="4.51253">
        <ele>456</ele>
        <time>2021-01-04T22:41:41Z</time>
      </trkpt>
      <trkpt lat="45.94079" lon="4.51305">
        <ele>464</ele>
        <time>2021-01-04T22:43:16Z</time>
      </trkpt>
      <trkpt lat="45.94035" lon="4.51329">
        <ele>478</ele>
        <time>2021-01-04T22:44:19Z</time>
      </trkpt>
      <trkpt lat="45.94022" lon="4.51339">
        <ele>482</ele>
        <time>2021-01-04T22:44:39Z</time>
      </trkpt>
      <trkpt lat="45.94012" lon="4.51356">
        <ele>485</ele>
        <time>2021-01-04T22:45:00Z</time>
      </trkpt>
      <trkpt lat="45.94007" lon="4.51374">
        <ele>486</ele>
        <time>2021-01-04T22:45:18Z</time>
      </trkpt>
      <trkpt lat="45.94007" lon="4.51409">
        <ele>483</ele>
        <time>2021-01-04T22:45:50Z</time>
      </trkpt>
      <trkpt lat="45.93998" lon="4.51442">
        <ele>483</ele>
        <time>2021-01-04T22:46:23Z</time>
      </trkpt>
      <trkpt lat="45.93977" lon="4.51487">
        <ele>482</ele>
        <time>2021-01-04T22:47:13Z</time>
      </trkpt>
      <trkpt lat="45.93967" lon="4.515">
        <ele>482</ele>
        <time>2021-01-04T22:47:31Z</time>
      </trkpt>
      <trkpt lat="45.93927" lon="4.51538">
        <ele>481</ele>
        <time>2021-01-04T22:48:35Z</time>
      </trkpt>
      <trkpt lat="45.93913" lon="4.51545">
        <ele>481</ele>
        <time>2021-01-04T22:48:55Z</time>
      </trkpt>
      <trkpt lat="45.9388" lon="4.51545">
        <ele>484</ele>
        <time>2021-01-04T22:49:39Z</time>
      </trkpt>
      <trkpt lat="45.93857" lon="4.5154">
        <ele>487</ele>
        <time>2021-01-04T22:50:10Z</time>
      </trkpt>
      <trkpt lat="45.93838" lon="4.51532">
        <ele>491</ele>
        <time>2021-01-04T22:50:37Z</time>
      </trkpt>
      <trkpt lat="45.93815" lon="4.5153">
        <ele>492</ele>
        <time>2021-01-04T22:51:07Z</time>
      </trkpt>
      <trkpt lat="45.93805" lon="4.51536">
        <ele>491</ele>
        <time>2021-01-04T22:51:22Z</time>
      </trkpt>
      <trkpt lat="45.93787" lon="4.51551">
        <ele>488</ele>
        <time>2021-01-04T22:51:49Z</time>
      </trkpt>
      <trkpt lat="45.93757" lon="4.51584">
        <ele>484</ele>
        <time>2021-01-04T22:52:40Z</time>
      </trkpt>
      <trkpt lat="45.93746" lon="4.51593">
        <ele>484</ele>
        <time>2021-01-04T22:52:57Z</time>
      </trkpt>
      <trkpt lat="45.93721" lon="4.51606">
        <ele>482</ele>
        <time>2021-01-04T22:53:32Z</time>
      </trkpt>
      <trkpt lat="45.93698" lon="4.51609">
        <ele>481</ele>
        <time>2021-01-04T22:54:03Z</time>
      </trkpt>
      <trkpt lat="45.93684" lon="4.5166">
        <ele>479</ele>
        <time>2021-01-04T22:54:54Z</time>
      </trkpt>
      <trkpt lat="45.93673" lon="4.51689">
        <ele>478</ele>
        <time>2021-01-04T22:55:25Z</time>
      </trkpt>
      <trkpt lat="45.93654" lon="4.51719">
        <ele>477</ele>
        <time>2021-01-04T22:56:02Z</time>
      </trkpt>
      <trkpt lat="45.93628" lon="4.51742">
        <ele>474</ele>
        <time>2021-01-04T22:56:43Z</time>
      </trkpt>
      <trkpt lat="45.93587" lon="4.51762">
        <ele>470</ele>
        <time>2021-01-04T22:57:41Z</time>
      </trkpt>
      <trkpt lat="45.93567" lon="4.51776">
        <ele>467</ele>
        <time>2021-01-04T22:58:10Z</time>
      </trkpt>
      <trkpt lat="45.93547" lon="4.51795">
        <ele>464</ele>
        <time>2021-01-04T22:58:42Z</time>
      </trkpt>
      <trkpt lat="45.93536" lon="4.51811">
        <ele>463</ele>
        <time>2021-01-04T22:59:03Z</time>
      </trkpt>
      <trkpt lat="45.93475" lon="4.51869">
        <ele>459</ele>
        <time>2021-01-04T23:00:41Z</time>
      </trkpt>
      <trkpt lat="45.93378" lon="4.51949">
        <ele>454</ele>
        <time>2021-01-04T23:03:10Z</time>
      </trkpt>
      <trkpt lat="45.93084" lon="4.52097">
        <ele>432</ele>
        <time>2021-01-04T23:10:06Z</time>
      </trkpt>
      <trkpt lat="45.93008" lon="4.52151">
        <ele>431</ele>
        <time>2021-01-04T23:11:59Z</time>
      </trkpt>
      <trkpt lat="45.92968" lon="4.52202">
        <ele>428</ele>
        <time>2021-01-04T23:13:10Z</time>
      </trkpt>
      <trkpt lat="45.9296" lon="4.52212">
        <ele>428</ele>
        <time>2021-01-04T23:13:24Z</time>
      </trkpt>
      <trkpt lat="45.92907" lon="4.5222">
        <ele>427</ele>
        <time>2021-01-04T23:14:36Z</time>
      </trkpt>
      <trkpt lat="45.92908" lon="4.52227">
        <ele>426</ele>
        <time>2021-01-04T23:14:42Z</time>
      </trkpt>
      <trkpt lat="45.92869" lon="4.52329">
        <ele>415</ele>
        <time>2021-01-04T23:16:30Z</time>
      </trkpt>
      <trkpt lat="45.92869" lon="4.52329">
        <ele>415</ele>
        <time>2021-01-04T23:16:30Z</time>
      </trkpt>
      <trkpt lat="45.92759" lon="4.52324">
        <ele>414</ele>
        <time>2021-01-04T23:18:57Z</time>
      </trkpt>
      <trkpt lat="45.92759" lon="4.52324">
        <ele>414</ele>
        <time>2021-01-04T23:18:57Z</time>
      </trkpt>
      <trkpt lat="45.92731" lon="4.52569">
        <ele>387</ele>
        <time>2021-01-04T23:22:48Z</time>
      </trkpt>
      <trkpt lat="45.92731" lon="4.52569">
        <ele>387</ele>
        <time>2021-01-04T23:22:48Z</time>
      </trkpt>
      <trkpt lat="45.92532" lon="4.52758">
        <ele>373</ele>
        <time>2021-01-04T23:28:06Z</time>
      </trkpt>
      <trkpt lat="45.92532" lon="4.52758">
        <ele>373</ele>
        <time>2021-01-04T23:28:06Z</time>
      </trkpt>
      <trkpt lat="45.92333" lon="4.5287">
        <ele>382</ele>
        <time>2021-01-04T23:32:51Z</time>
      </trkpt>
      <trkpt lat="45.92333" lon="4.5287">
        <ele>382</ele>
        <time>2021-01-04T23:32:51Z</time>
      </trkpt>
      <trkpt lat="45.92071" lon="4.52671">
        <ele>387</ele>
        <time>2021-01-04T23:39:26Z</time>
      </trkpt>
    </trkseg>
  </trk>
</gpx>